METAR Data
IDs: Format: Raw Decoded Include TAF

Data at: 1600 UTC 18 Feb 2019

METAR for:KORC (Orange City Arpt, IA, US)
Text:KORC 181555Z AUTO 31007KT 10SM CLR M14/M16 A3042 RMK AO2
Temperature:-14.0°C ( 7°F)
Dewpoint:-16.0°C ( 3°F) [RH = 85%]
Pressure (altimeter):30.42 inches Hg (1030.2 mb)
Winds:from the NW (310 degrees) at 8 MPH (7 knots; 3.6 m/s)
Visibility:10 or more sm (16+ km)
Ceiling:at least 12,000 feet AGL
Clouds:sky clear below 12,000 feet AGL
QC Flag:automated observation with no human augmentation